createdAt,value
2022-08-04T00:01:12.958Z,17.18
2022-08-04T00:04:02.987Z,17.15
2022-08-04T00:06:35.990Z,17.14
2022-08-04T00:09:10.877Z,17.09
2022-08-04T00:11:40.618Z,17.08
2022-08-04T00:14:15.055Z,17.07
2022-08-04T00:16:43.498Z,17.08
2022-08-04T00:19:24.687Z,17.09
2022-08-04T00:22:02.944Z,17.06
2022-08-04T00:24:34.143Z,17.04
2022-08-04T00:27:01.316Z,17.03
2022-08-04T00:29:28.724Z,17.00
2022-08-04T00:32:01.958Z,16.96
2022-08-04T00:34:29.995Z,16.93
2022-08-04T00:36:58.754Z,16.91
2022-08-04T00:39:26.756Z,16.90
2022-08-04T00:42:15.292Z,16.86
2022-08-04T00:45:00.600Z,16.84
2022-08-04T00:48:02.128Z,16.82
2022-08-04T00:50:39.344Z,16.79
2022-08-04T00:53:19.427Z,16.77
2022-08-04T00:55:54.819Z,16.73
2022-08-04T00:58:36.139Z,16.71
2022-08-04T01:01:11.499Z,16.72
2022-08-04T01:04:03.716Z,16.70
2022-08-04T01:07:01.653Z,16.63
2022-08-04T01:09:52.783Z,16.61
2022-08-04T01:12:19.406Z,16.59
2022-08-04T01:15:04.139Z,16.57
2022-08-04T01:17:44.052Z,16.56
2022-08-04T01:20:15.508Z,16.54
2022-08-04T01:23:19.120Z,16.53
2022-08-04T01:25:48.462Z,16.49
2022-08-04T01:28:50.353Z,16.47
2022-08-04T01:31:28.865Z,16.47
2022-08-04T01:34:04.370Z,16.48
2022-08-04T01:36:35.426Z,16.50
2022-08-04T01:39:24.956Z,16.48
2022-08-04T01:41:58.033Z,16.44
2022-08-04T01:44:28.854Z,16.40
2022-08-04T01:46:55.851Z,16.40
2022-08-04T01:49:28.162Z,16.33
2022-08-04T01:51:56.717Z,16.31
2022-08-04T01:54:24.292Z,16.27
2022-08-04T01:56:51.910Z,16.26
2022-08-04T01:59:20.804Z,16.25
2022-08-04T02:01:48.422Z,16.22
2022-08-04T02:04:23.430Z,16.23
2022-08-04T02:06:56.122Z,16.21
2022-08-04T02:09:30.009Z,16.21
2022-08-04T02:12:05.996Z,16.18
2022-08-04T02:15:03.273Z,16.16
2022-08-04T02:17:40.554Z,16.15
2022-08-04T02:20:23.146Z,16.12
2022-08-04T02:23:20.236Z,16.11
2022-08-04T02:25:49.203Z,16.10
2022-08-04T02:28:23.560Z,16.06
2022-08-04T02:31:22.203Z,16.06
2022-08-04T02:34:20.820Z,16.04
2022-08-04T02:36:51.757Z,16.00
2022-08-04T02:39:22.830Z,15.97
2022-08-04T02:41:53.068Z,15.91
2022-08-04T02:44:23.755Z,15.89
2022-08-04T02:46:52.849Z,15.90
2022-08-04T02:49:24.226Z,15.86
2022-08-04T02:51:57.299Z,15.87
2022-08-04T02:54:32.782Z,15.86
2022-08-04T02:57:02.217Z,15.85
2022-08-04T02:59:57.605Z,15.83
2022-08-04T03:02:35.146Z,15.82
2022-08-04T03:05:13.602Z,15.79
2022-08-04T03:07:55.106Z,15.76
2022-08-04T03:10:38.579Z,15.77
2022-08-04T03:13:36.889Z,15.77
2022-08-04T03:16:51.225Z,15.76
2022-08-04T03:19:26.763Z,15.76
2022-08-04T03:22:23.220Z,15.75
2022-08-04T03:25:13.784Z,15.67
2022-08-04T03:28:21.642Z,15.70
2022-08-04T03:31:06.820Z,15.69
2022-08-04T03:33:33.350Z,15.68
2022-08-04T03:36:37.507Z,15.68
2022-08-04T03:39:18.500Z,15.64
2022-08-04T03:42:04.896Z,15.62
2022-08-04T03:44:38.216Z,15.62
2022-08-04T03:47:20.196Z,15.60
2022-08-04T03:50:28.229Z,15.58
2022-08-04T03:53:16.537Z,15.52
2022-08-04T03:55:48.856Z,15.47
2022-08-04T03:58:47.214Z,15.45
2022-08-04T04:02:01.221Z,15.47
2022-08-04T04:04:40.521Z,15.49
2022-08-04T04:07:24.381Z,15.52
2022-08-04T04:10:28.713Z,15.49
2022-08-04T04:13:18.629Z,15.51
2022-08-04T04:15:50.090Z,15.49
2022-08-04T04:18:29.366Z,15.47
2022-08-04T04:21:19.402Z,15.38
2022-08-04T04:23:48.784Z,15.39
2022-08-04T04:27:09.417Z,15.39
2022-08-04T04:29:54.268Z,15.41
2022-08-04T04:32:46.998Z,15.41
2022-08-04T04:35:23.218Z,15.42
2022-08-04T04:38:28.716Z,15.44
2022-08-04T04:41:11.559Z,15.49
2022-08-04T04:43:51.561Z,15.51
2022-08-04T04:46:37.340Z,15.46
2022-08-04T04:49:37.918Z,15.49
2022-08-04T04:52:24.387Z,15.49
2022-08-04T04:55:14.586Z,15.45
2022-08-04T04:57:54.694Z,15.49
2022-08-04T05:00:26.445Z,15.49
2022-08-04T05:03:09.002Z,15.50
2022-08-04T05:05:51.230Z,15.38
2022-08-04T05:08:45.573Z,15.39
2022-08-04T05:11:13.707Z,15.41
2022-08-04T05:14:35.372Z,15.50
2022-08-04T05:16:51.310Z,15.59
2022-08-04T05:19:39.792Z,15.65
2022-08-04T05:22:14.789Z,15.74
2022-08-04T05:24:44.974Z,16.20
2022-08-04T05:27:25.865Z,16.67
2022-08-04T05:29:59.767Z,17.22
2022-08-04T05:32:37.552Z,17.63
2022-08-04T05:35:09.456Z,18.05
2022-08-04T05:37:40.418Z,18.46
2022-08-04T05:40:09.453Z,18.75
2022-08-04T05:42:39.698Z,19.15
2022-08-04T05:45:08.670Z,19.55
2022-08-04T05:47:36.875Z,19.89
2022-08-04T05:50:05.859Z,20.17
2022-08-04T05:52:34.690Z,20.49
2022-08-04T05:55:02.901Z,20.67
2022-08-04T05:57:30.903Z,20.72
2022-08-04T06:00:00.559Z,21.01
2022-08-04T06:02:28.549Z,21.33
2022-08-04T06:04:57.902Z,21.63
2022-08-04T06:07:26.707Z,21.92
2022-08-04T06:09:54.356Z,22.14
2022-08-04T06:12:31.156Z,22.30
2022-08-04T06:15:00.202Z,22.15
2022-08-04T06:19:56.250Z,22.36
2022-08-04T06:20:23.378Z,22.55
2022-08-04T06:22:55.660Z,22.73
2022-08-04T06:25:29.867Z,23.01
2022-08-04T06:27:58.173Z,23.17
2022-08-04T06:30:27.419Z,23.51
2022-08-04T06:33:03.685Z,23.37
2022-08-04T06:35:32.758Z,23.48
2022-08-04T06:38:01.661Z,23.50
2022-08-04T06:40:32.179Z,23.71
2022-08-04T06:43:06.474Z,23.84
2022-08-04T06:45:40.090Z,23.94
2022-08-04T06:48:08.597Z,24.11
2022-08-04T06:51:27.654Z,24.04
2022-08-04T06:53:24.501Z,24.19
2022-08-04T06:55:52.587Z,24.36
2022-08-04T06:58:21.103Z,24.38
2022-08-04T07:00:48.650Z,24.46
2022-08-04T07:03:18.198Z,24.35
2022-08-04T07:05:48.206Z,24.23
2022-08-04T07:08:15.532Z,24.20
2022-08-04T07:10:42.646Z,24.19
2022-08-04T07:13:10.633Z,24.17
2022-08-04T07:15:41.475Z,24.14
2022-08-04T07:18:08.264Z,24.11
2022-08-04T07:20:36.780Z,24.34
2022-08-04T07:23:05.664Z,24.24
2022-08-04T07:26:11.147Z,24.38
2022-08-04T07:28:22.723Z,24.33
2022-08-04T07:30:50.654Z,24.46
2022-08-04T07:33:18.381Z,24.57
2022-08-04T07:36:05.958Z,24.62
2022-08-04T07:38:37.873Z,25.10
2022-08-04T07:41:38.279Z,25.19
2022-08-04T07:44:05.844Z,25.46
2022-08-04T07:46:32.692Z,25.77
2022-08-04T07:49:02.532Z,26.34
2022-08-04T07:51:30.810Z,26.41
2022-08-04T07:53:58.678Z,26.63
2022-08-04T07:56:27.206Z,26.87
2022-08-04T07:58:54.738Z,26.95
2022-08-04T08:01:22.282Z,26.70
2022-08-04T08:03:50.831Z,26.73
2022-08-04T08:06:32.956Z,26.90
2022-08-04T08:09:12.195Z,26.91
2022-08-04T08:12:35.298Z,27.13
2022-08-04T08:14:27.554Z,27.22
2022-08-04T08:16:54.478Z,27.32
2022-08-04T08:19:21.211Z,27.38
2022-08-04T08:21:58.968Z,27.73
2022-08-04T08:24:30.883Z,27.86
2022-08-04T08:26:58.759Z,27.83
2022-08-04T08:29:26.678Z,27.76
2022-08-04T08:31:56.682Z,27.89
2022-08-04T08:34:28.951Z,27.96
2022-08-04T08:37:41.866Z,28.00
2022-08-04T08:40:11.989Z,28.10
2022-08-04T08:42:48.009Z,27.94
2022-08-04T08:45:38.837Z,27.91
2022-08-04T08:48:29.529Z,27.91
2022-08-04T08:50:58.887Z,28.08
2022-08-04T08:53:28.278Z,28.06
2022-08-04T08:56:34.261Z,28.10
2022-08-04T08:59:33.725Z,28.53
2022-08-04T09:02:18.874Z,28.67
2022-08-04T09:04:54.481Z,28.89
2022-08-04T09:07:58.701Z,28.96
2022-08-04T09:10:33.610Z,28.88
2022-08-04T09:13:17.781Z,28.96
2022-08-04T09:16:10.926Z,28.88
2022-08-04T09:18:53.111Z,29.09
2022-08-04T09:21:34.014Z,29.05
2022-08-04T09:24:36.744Z,29.27
2022-08-04T09:27:25.131Z,29.01
2022-08-04T09:30:08.468Z,29.37
2022-08-04T09:32:47.256Z,29.28
2022-08-04T09:35:19.143Z,28.97
2022-08-04T09:38:05.858Z,29.29
2022-08-04T09:40:55.431Z,29.51
2022-08-04T09:44:41.775Z,29.67
2022-08-04T09:46:27.960Z,29.84
2022-08-04T09:49:07.637Z,30.07
2022-08-04T09:51:57.801Z,29.91
2022-08-04T09:54:44.010Z,29.73
2022-08-04T09:57:41.794Z,29.85
2022-08-04T10:00:10.880Z,29.51
2022-08-04T10:03:01.173Z,29.50
2022-08-04T10:06:06.105Z,29.46
2022-08-04T10:09:09.159Z,29.73
2022-08-04T10:12:01.813Z,29.87
2022-08-04T10:14:44.171Z,29.64
2022-08-04T10:17:31.799Z,29.84
2022-08-04T10:20:11.621Z,29.68
2022-08-04T10:23:09.552Z,29.78
2022-08-04T10:26:08.718Z,29.98
2022-08-04T10:28:44.948Z,30.33
2022-08-04T10:31:19.520Z,30.37
2022-08-04T10:33:58.765Z,30.25
2022-08-04T10:36:30.406Z,30.45
2022-08-04T10:39:06.162Z,30.61
2022-08-04T10:42:13.032Z,30.52
2022-08-04T10:45:19.312Z,30.77
2022-08-04T10:47:57.803Z,30.07
2022-08-04T10:50:26.658Z,29.91
2022-08-04T10:53:23.058Z,29.87
2022-08-04T10:56:06.270Z,29.95
2022-08-04T10:58:49.791Z,30.10
2022-08-04T11:01:59.482Z,29.88
2022-08-04T11:04:48.763Z,30.38
2022-08-04T11:07:17.295Z,30.35
2022-08-04T11:09:45.345Z,30.44
2022-08-04T11:12:25.442Z,30.05
2022-08-04T11:14:54.740Z,29.90
2022-08-04T11:17:26.454Z,29.94
2022-08-04T11:20:24.812Z,29.70
2022-08-04T11:22:58.058Z,29.88
2022-08-04T11:25:36.052Z,30.14
2022-08-04T11:28:22.306Z,30.32
2022-08-04T11:31:08.167Z,30.08
2022-08-04T11:34:01.567Z,30.13
2022-08-04T11:37:00.892Z,30.27
2022-08-04T11:39:36.483Z,30.45
2022-08-04T11:42:21.111Z,30.17
2022-08-04T11:44:51.508Z,30.24
2022-08-04T11:47:30.416Z,30.22
2022-08-04T11:50:10.176Z,30.44
2022-08-04T11:52:40.410Z,30.62
2022-08-04T11:55:11.456Z,30.33
2022-08-04T11:57:39.452Z,30.55
2022-08-04T12:00:10.308Z,30.40
2022-08-04T12:02:40.457Z,30.16
2022-08-04T12:05:09.432Z,30.22
2022-08-04T12:08:11.918Z,30.30
2022-08-04T12:10:54.085Z,30.23
2022-08-04T12:13:28.128Z,29.94
2022-08-04T12:16:05.938Z,30.16
2022-08-04T12:18:43.414Z,30.11
2022-08-04T12:21:23.499Z,29.95
2022-08-04T12:24:00.612Z,29.92
2022-08-04T12:26:29.008Z,29.91
2022-08-04T12:29:10.523Z,29.67
2022-08-04T12:31:47.035Z,29.71
2022-08-04T12:34:32.300Z,29.82
2022-08-04T12:37:15.438Z,29.77
2022-08-04T12:40:21.617Z,29.72
2022-08-04T12:42:55.838Z,29.65
2022-08-04T12:45:27.298Z,29.84
2022-08-04T12:47:58.119Z,29.96
2022-08-04T12:50:25.764Z,29.96
2022-08-04T12:53:04.076Z,30.03
2022-08-04T12:55:35.454Z,30.14
2022-08-04T12:58:11.810Z,30.19
2022-08-04T13:00:41.778Z,30.11
2022-08-04T13:03:16.890Z,30.00
2022-08-04T13:05:45.541Z,29.78
2022-08-04T13:08:13.948Z,29.83
2022-08-04T13:10:44.597Z,29.74
2022-08-04T13:13:20.027Z,29.69
2022-08-04T13:16:08.381Z,29.79
2022-08-04T13:18:42.778Z,29.80
2022-08-04T13:21:21.035Z,29.80
2022-08-04T13:27:06.276Z,29.79
2022-08-04T13:29:58.053Z,29.63
2022-08-04T13:30:24.216Z,29.84
2022-08-04T13:32:28.840Z,29.71
2022-08-04T13:34:57.534Z,29.76
2022-08-04T13:37:36.114Z,29.70
2022-08-04T13:40:09.240Z,29.64
2022-08-04T13:42:39.065Z,29.55
2022-08-04T13:45:08.383Z,29.73
2022-08-04T13:47:38.485Z,29.80
2022-08-04T13:50:19.786Z,29.75
2022-08-04T13:52:47.270Z,29.74
2022-08-04T13:55:28.189Z,29.79
2022-08-04T13:58:19.073Z,29.71
2022-08-04T14:01:00.840Z,29.60
2022-08-04T14:03:54.186Z,29.55
2022-08-04T14:06:28.563Z,29.49
2022-08-04T14:08:58.450Z,29.50
2022-08-04T14:12:09.084Z,29.51
2022-08-04T14:14:29.743Z,29.49
2022-08-04T14:17:20.477Z,29.32
2022-08-04T14:19:50.218Z,29.16
2022-08-04T14:22:25.753Z,29.21
2022-08-04T14:25:17.982Z,29.05
2022-08-04T14:27:51.284Z,29.06
2022-08-04T14:30:35.577Z,29.10
2022-08-04T14:34:02.424Z,29.01
2022-08-04T14:36:01.477Z,28.98
2022-08-04T14:38:44.094Z,28.85
2022-08-04T14:41:11.716Z,28.84
2022-08-04T14:43:46.323Z,28.85
2022-08-04T14:46:13.500Z,28.89
2022-08-04T14:48:59.609Z,28.95
2022-08-04T14:51:36.537Z,28.84
2022-08-04T14:54:08.231Z,28.63
2022-08-04T14:56:46.732Z,28.62
2022-08-04T14:59:14.103Z,28.58
2022-08-04T15:01:42.220Z,28.47
2022-08-04T15:04:11.262Z,28.52
2022-08-04T15:06:38.093Z,28.70
2022-08-04T15:09:07.812Z,28.61
2022-08-04T15:11:38.911Z,28.41
2022-08-04T15:14:08.716Z,28.27
2022-08-04T15:16:55.410Z,28.26
2022-08-04T15:19:22.904Z,28.23
2022-08-04T15:21:49.854Z,28.15
2022-08-04T15:24:16.612Z,28.13
2022-08-04T15:26:49.846Z,28.05
2022-08-04T15:30:00.354Z,27.95
2022-08-04T15:32:34.369Z,27.83
2022-08-04T15:35:24.754Z,27.73
2022-08-04T15:38:15.391Z,27.66
2022-08-04T15:41:05.180Z,27.64
2022-08-04T15:44:02.197Z,27.69
2022-08-04T15:46:46.813Z,27.76
2022-08-04T15:49:21.715Z,27.86
2022-08-04T15:52:00.286Z,27.82
2022-08-04T15:54:32.773Z,27.69
2022-08-04T15:57:01.412Z,27.61
2022-08-04T15:59:59.912Z,27.56
2022-08-04T16:02:32.457Z,27.48
2022-08-04T16:05:17.842Z,27.41
2022-08-04T16:08:04.632Z,27.33
2022-08-04T16:10:31.274Z,27.25
2022-08-04T16:13:03.499Z,27.29
2022-08-04T16:15:47.624Z,27.26
2022-08-04T16:18:27.425Z,27.29
2022-08-04T16:21:03.918Z,27.22
2022-08-04T16:23:53.611Z,27.11
2022-08-04T16:26:37.873Z,27.03
2022-08-04T16:29:31.121Z,27.00
2022-08-04T16:32:07.161Z,27.04
2022-08-04T16:34:55.185Z,26.97
2022-08-04T16:37:31.074Z,26.92
2022-08-04T16:40:33.289Z,26.90
2022-08-04T16:43:08.862Z,26.84
2022-08-04T16:46:01.180Z,26.75
2022-08-04T16:48:30.126Z,26.72
2022-08-04T16:51:10.732Z,26.69
2022-08-04T16:53:58.742Z,26.51
2022-08-04T16:56:33.248Z,26.37
2022-08-04T16:59:07.525Z,26.32
2022-08-04T17:01:34.986Z,26.25
2022-08-04T17:04:07.488Z,26.16
2022-08-04T17:06:40.200Z,26.09
2022-08-04T17:09:13.011Z,26.02
2022-08-04T17:11:42.180Z,25.92
2022-08-04T17:14:09.366Z,25.85
2022-08-04T17:16:41.867Z,25.67
2022-08-04T17:19:23.885Z,25.53
2022-08-04T17:22:04.576Z,25.43
2022-08-04T17:24:33.520Z,25.27
2022-08-04T17:27:00.914Z,25.19
2022-08-04T17:29:44.598Z,25.21
2022-08-04T17:32:18.808Z,25.18
2022-08-04T17:34:50.103Z,25.13
2022-08-04T17:37:39.915Z,25.13
2022-08-04T17:40:18.063Z,25.07
2022-08-04T17:42:50.392Z,24.97
2022-08-04T17:45:53.230Z,24.90
2022-08-04T17:48:09.228Z,24.85
2022-08-04T17:50:36.758Z,24.79
2022-08-04T17:53:12.213Z,24.75
2022-08-04T17:55:49.345Z,24.74
2022-08-04T17:58:23.200Z,24.64
2022-08-04T18:03:52.850Z,24.47
2022-08-04T18:06:22.103Z,24.42
2022-08-04T18:08:58.952Z,24.35
2022-08-04T18:12:02.619Z,24.26
2022-08-04T18:14:38.637Z,24.18
2022-08-04T18:17:17.838Z,24.08
2022-08-04T18:19:55.416Z,23.98
2022-08-04T18:22:27.695Z,23.94
2022-08-04T18:24:56.812Z,23.86
2022-08-04T18:27:26.228Z,23.80
2022-08-04T18:30:31.061Z,23.74
2022-08-04T18:33:10.490Z,23.64
2022-08-04T18:36:33.182Z,23.58
2022-08-04T18:38:23.433Z,23.50
2022-08-04T18:40:54.393Z,23.44
2022-08-04T18:43:28.495Z,23.41
2022-08-04T18:46:14.436Z,23.27
2022-08-04T18:48:41.644Z,23.19
2022-08-04T18:51:22.451Z,23.14
2022-08-04T18:53:55.124Z,23.11
2022-08-04T18:56:29.181Z,23.04
2022-08-04T18:58:57.330Z,22.96
2022-08-04T19:01:30.106Z,22.91
2022-08-04T19:04:33.654Z,22.83
2022-08-04T19:07:03.828Z,22.75
2022-08-04T19:09:51.849Z,22.69
2022-08-04T19:12:27.513Z,22.65
2022-08-04T19:14:58.571Z,22.61
2022-08-04T19:17:52.735Z,22.56
2022-08-04T19:20:25.800Z,22.51
2022-08-04T19:24:27.807Z,22.47
2022-08-04T19:25:59.337Z,22.43
2022-08-04T19:28:29.824Z,22.36
2022-08-04T19:30:58.086Z,22.30
2022-08-04T19:33:25.618Z,22.25
2022-08-04T19:35:57.215Z,22.19
2022-08-04T19:38:24.026Z,22.16
2022-08-04T19:40:52.686Z,22.11
2022-08-04T19:43:23.058Z,22.03
2022-08-04T19:45:50.333Z,21.99
2022-08-04T19:48:19.424Z,21.96
2022-08-04T19:50:47.302Z,21.91
2022-08-04T19:53:19.368Z,21.85
2022-08-04T19:55:49.815Z,21.83
2022-08-04T19:58:17.957Z,21.76
2022-08-04T20:00:51.252Z,21.74
2022-08-04T20:03:20.478Z,21.71
2022-08-04T20:05:55.054Z,21.68
2022-08-04T20:08:24.144Z,21.63
2022-08-04T20:10:52.353Z,21.59
2022-08-04T20:13:30.522Z,21.58
2022-08-04T20:15:59.176Z,21.57
2022-08-04T20:18:36.018Z,21.53
2022-08-04T20:21:23.901Z,21.51
2022-08-04T20:24:40.299Z,21.45
2022-08-04T20:26:48.737Z,21.40
2022-08-04T20:29:20.822Z,21.35
2022-08-04T20:32:05.648Z,21.32
2022-08-04T20:34:35.428Z,21.29
2022-08-04T20:37:03.184Z,21.25
2022-08-04T20:39:30.961Z,21.23
2022-08-04T20:41:58.359Z,21.18
2022-08-04T20:44:25.573Z,21.14
2022-08-04T20:46:52.365Z,21.08
2022-08-04T20:49:19.061Z,21.05
2022-08-04T20:51:46.353Z,21.00
2022-08-04T20:54:26.803Z,21.00
2022-08-04T20:56:59.564Z,20.95
2022-08-04T20:59:26.452Z,20.90
2022-08-04T21:01:54.105Z,20.86
2022-08-04T21:04:35.830Z,20.83
2022-08-04T21:07:06.117Z,20.82
2022-08-04T21:09:37.917Z,20.82
2022-08-04T21:12:26.796Z,20.75
2022-08-04T21:15:01.481Z,20.71
2022-08-04T21:17:59.104Z,20.67
2022-08-04T21:20:28.390Z,20.61
2022-08-04T21:23:01.533Z,20.56
2022-08-04T21:25:29.332Z,20.54
2022-08-04T21:27:58.783Z,20.52
2022-08-04T21:30:27.073Z,20.48
2022-08-04T21:32:55.208Z,20.45
2022-08-04T21:35:36.914Z,20.40
2022-08-04T21:38:17.157Z,20.34
2022-08-04T21:41:01.937Z,20.30
2022-08-04T21:43:42.782Z,20.27
2022-08-04T21:46:11.495Z,20.24
2022-08-04T21:48:39.168Z,20.22
2022-08-04T21:54:08.475Z,20.12
2022-08-04T21:56:36.493Z,20.10
2022-08-04T21:59:11.111Z,20.06
2022-08-04T22:01:51.801Z,20.02
2022-08-04T22:04:19.471Z,19.99
2022-08-04T22:06:47.628Z,19.93
2022-08-04T22:09:18.926Z,19.89
2022-08-04T22:11:51.157Z,19.81
2022-08-04T22:14:29.263Z,19.79
2022-08-04T22:17:04.162Z,19.76
2022-08-04T22:19:54.983Z,19.73
2022-08-04T22:22:26.286Z,19.72
2022-08-04T22:25:00.293Z,19.67
2022-08-04T22:27:47.397Z,19.64
2022-08-04T22:30:17.756Z,19.62
2022-08-04T22:32:48.492Z,19.59
2022-08-04T22:35:43.374Z,19.58
2022-08-04T22:38:06.603Z,19.54
2022-08-04T22:40:50.087Z,19.51
2022-08-04T22:43:32.602Z,19.45
2022-08-04T22:46:06.483Z,19.42
2022-08-04T22:48:38.465Z,19.43
2022-08-04T22:51:07.389Z,19.39
2022-08-04T22:53:35.458Z,19.33
2022-08-04T22:56:09.802Z,19.30
2022-08-04T22:58:40.152Z,19.23
2022-08-04T23:01:08.112Z,19.22
2022-08-04T23:03:37.279Z,19.16
2022-08-04T23:06:10.898Z,19.13
2022-08-04T23:08:46.475Z,19.13
2022-08-04T23:11:15.209Z,19.10
2022-08-04T23:13:42.701Z,19.09
2022-08-04T23:16:10.491Z,19.07
2022-08-04T23:18:41.806Z,19.02
2022-08-04T23:21:10.343Z,19.02
2022-08-04T23:23:47.694Z,19.00
2022-08-04T23:26:27.695Z,18.98
2022-08-04T23:28:58.165Z,18.93
2022-08-04T23:31:25.407Z,18.91
2022-08-04T23:34:07.430Z,18.88
2022-08-04T23:36:35.234Z,18.85
2022-08-04T23:39:05.555Z,18.86
2022-08-04T23:41:54.303Z,18.83
2022-08-04T23:44:25.342Z,18.84
2022-08-04T23:47:03.337Z,18.84
2022-08-04T23:49:43.949Z,18.84
2022-08-04T23:52:28.098Z,18.82
2022-08-04T23:55:00.302Z,18.77
2022-08-04T23:58:06.324Z,18.75
